Selected Aviation Weather Reports

Never base important decisions on this or any weather information obtained from a non-NWS site!

Last update: Feb 5, 2023, 9:06 pm CDT

 

There are no active watches, warnings or advisories for the Mid-South area.

METAR for KATL, KDFW, KEWR, KLAX, KMEM & KORD

METAR is also known as Meteorological Terminal Aviation Routine Weather Report or Meteorological Aerodrome Report.


2023/02/06 02:52 KATL 060252Z 28004KT 10SM FEW050 11/05 A3015 RMK AO2 SLP213 T01110050 51009 $

KATL, Feb 06, 2023, 02:52Z
Hartsfield-Jackson Atlanta International Airport
Wind: 280° @ 4 kts
Visibility: 10 Statute miles
Clouds: Few @ 5,000 ft
Altimeter: 30.15 in/Hg
Sea Level Pressure: 1021.3 mb
Temperature: 51.98°F (11.1°C)
Dew Point: 41°F (5.0°C)
Pressure trend, past 3 hrs: Pressure Trend 0.9 in/Hg
Additional Remarks: 
Maintenance Needed on the System.

2023/02/06 02:53 KDFW 060253Z 16008KT 10SM CLR 15/10 A3006 RMK AO2 SLP176 T01500100 50000 $

KDFW, Feb 06, 2023, 02:53Z
Dallas-Ft. Worth International Airport
Wind: 160° @ 8 kts
Visibility: 10 Statute miles
Clouds: Skies Clear
Altimeter: 30.06 in/Hg
Sea Level Pressure: 1017.6 mb
Temperature: 59°F (15.0°C)
Dew Point: 50°F (10.0°C)
Pressure trend, past 3 hrs: Pressure Trend 0.0 in/Hg
Additional Remarks: 
Maintenance Needed on the System.

2023/02/06 02:51 KEWR 060251Z 00000KT 10SM BKN160 OVC220 06/M04 A3002 RMK AO2 SLP164 T00611044 55004

KEWR, Feb 06, 2023, 02:51Z
Newark Liberty International Airport
Wind: Calm
Visibility: 10 Statute miles
Clouds: Broken @ 16,000 ft
Overcast @ 22,000 ft
Altimeter: 30.02 in/Hg
Sea Level Pressure: 1016.4 mb
Temperature: 42.98°F (6.1°C)
Dew Point: 24.08°F (-4.4°C)
Pressure trend, past 3 hrs: Pressure Trend 0.4 in/Hg

2023/02/06 02:53 KLAX 060253Z 26018KT 10SM FEW050 14/09 A3012 RMK AO2 PK WND 28027/0214 SLP200 T01390089 56001 $

KLAX, Feb 06, 2023, 02:53Z
Los Angeles International Airport
Wind: 260° @ 18 kts
Visibility: 10 Statute miles
Clouds: Few @ 5,000 ft
Altimeter: 30.12 in/Hg
Sea Level Pressure: 1020.0 mb
Temperature: 57.02°F (13.9°C)
Dew Point: 48.02°F (8.9°C)
Pressure trend, past 3 hrs: Pressure Trend 0.1 in/Hg
Peak wind: 280° @ 27 kts, 02:14Z
Additional Remarks: 
Maintenance Needed on the System.

2023/02/06 02:54 KMEM 060254Z 00000KT 10SM CLR 07/06 A3018 RMK AO2 SLP219 T00720056 51005

KMEM, Feb 06, 2023, 02:54Z
Memphis International Airport
Wind: Calm
Visibility: 10 Statute miles
Clouds: Skies Clear
Altimeter: 30.18 in/Hg
Sea Level Pressure: 1021.9 mb
Temperature: 44.96°F (7.2°C)
Dew Point: 42.08°F (5.6°C)
Pressure trend, past 3 hrs: Pressure Trend 0.5 in/Hg

2023/02/06 02:51 KORD 060251Z 34004KT 10SM CLR 00/M04 A3012 RMK AO2 SLP208 T00001044 53033 $

KORD, Feb 06, 2023, 02:51Z
Chicago O’Hare International Airport
Wind: 340° @ 4 kts
Visibility: 10 Statute miles
Clouds: Skies Clear
Altimeter: 30.12 in/Hg
Sea Level Pressure: 1020.8 mb
Temperature: 32°F (0.0°C)
Dew Point: 24.08°F (-4.4°C)
Pressure trend, past 3 hrs: Pressure Trend 3.3 in/Hg
Additional Remarks: 
Maintenance Needed on the System.

Top of page